sensor_id;sensor_type;location;lat;lon;timestamp;P1;durP1;ratioP1;P2;durP2;ratioP2
50932;SDS011;36921;49.006;9.292;2023-11-21T00:02:12;4.63;;;1.20;;
50932;SDS011;36921;49.006;9.292;2023-11-21T00:04:37;7.07;;;1.20;;
50932;SDS011;36921;49.006;9.292;2023-11-21T00:07:03;3.47;;;1.60;;
50932;SDS011;36921;49.006;9.292;2023-11-21T00:09:29;8.68;;;1.60;;
50932;SDS011;36921;49.006;9.292;2023-11-21T00:11:55;8.13;;;1.33;;
50932;SDS011;36921;49.006;9.292;2023-11-21T00:14:20;4.15;;;1.42;;
50932;SDS011;36921;49.006;9.292;2023-11-21T00:16:46;3.90;;;1.20;;
50932;SDS011;36921;49.006;9.292;2023-11-21T00:19:11;4.00;;;1.27;;
50932;SDS011;36921;49.006;9.292;2023-11-21T00:21:37;4.00;;;1.17;;
50932;SDS011;36921;49.006;9.292;2023-11-21T00:24:02;3.05;;;1.23;;
50932;SDS011;36921;49.006;9.292;2023-11-21T00:26:28;5.65;;;1.25;;
50932;SDS011;36921;49.006;9.292;2023-11-21T00:28:53;6.05;;;1.15;;
50932;SDS011;36921;49.006;9.292;2023-11-21T00:31:19;7.78;;;1.45;;
50932;SDS011;36921;49.006;9.292;2023-11-21T00:33:44;7.57;;;1.00;;
50932;SDS011;36921;49.006;9.292;2023-11-21T00:36:09;3.25;;;1.13;;
50932;SDS011;36921;49.006;9.292;2023-11-21T00:38:35;5.95;;;1.10;;
50932;SDS011;36921;49.006;9.292;2023-11-21T00:41:01;6.25;;;1.70;;
50932;SDS011;36921;49.006;9.292;2023-11-21T00:43:27;3.33;;;1.02;;
50932;SDS011;36921;49.006;9.292;2023-11-21T00:45:53;2.83;;;1.10;;
50932;SDS011;36921;49.006;9.292;2023-11-21T00:48:18;5.03;;;1.50;;
50932;SDS011;36921;49.006;9.292;2023-11-21T00:50:44;7.82;;;1.63;;
50932;SDS011;36921;49.006;9.292;2023-11-21T00:53:09;7.78;;;1.48;;
50932;SDS011;36921;49.006;9.292;2023-11-21T00:55:36;7.93;;;1.50;;
50932;SDS011;36921;49.006;9.292;2023-11-21T00:58:01;8.18;;;3.20;;
50932;SDS011;36921;49.006;9.292;2023-11-21T01:00:29;10.55;;;4.38;;
50932;SDS011;36921;49.006;9.292;2023-11-21T01:02:54;9.23;;;2.78;;
50932;SDS011;36921;49.006;9.292;2023-11-21T01:05:20;6.50;;;2.10;;
50932;SDS011;36921;49.006;9.292;2023-11-21T01:07:45;6.97;;;1.80;;
50932;SDS011;36921;49.006;9.292;2023-11-21T01:10:11;6.75;;;2.03;;
50932;SDS011;36921;49.006;9.292;2023-11-21T01:12:37;6.93;;;1.40;;
50932;SDS011;36921;49.006;9.292;2023-11-21T01:15:03;6.07;;;1.60;;
50932;SDS011;36921;49.006;9.292;2023-11-21T01:19:59;9.82;;;1.30;;
50932;SDS011;36921;49.006;9.292;2023-11-21T01:22:25;5.25;;;2.20;;
50932;SDS011;36921;49.006;9.292;2023-11-21T01:24:51;8.85;;;1.73;;
50932;SDS011;36921;49.006;9.292;2023-11-21T01:27:17;12.75;;;2.47;;
50932;SDS011;36921;49.006;9.292;2023-11-21T01:29:43;7.38;;;2.08;;
50932;SDS011;36921;49.006;9.292;2023-11-21T01:32:09;7.78;;;1.67;;
50932;SDS011;36921;49.006;9.292;2023-11-21T01:34:35;11.60;;;1.88;;
50932;SDS011;36921;49.006;9.292;2023-11-21T01:37:00;4.45;;;1.80;;
50932;SDS011;36921;49.006;9.292;2023-11-21T01:39:26;6.38;;;2.05;;
50932;SDS011;36921;49.006;9.292;2023-11-21T01:41:51;5.15;;;2.10;;
50932;SDS011;36921;49.006;9.292;2023-11-21T01:44:17;10.13;;;1.80;;
50932;SDS011;36921;49.006;9.292;2023-11-21T01:46:44;7.50;;;2.22;;
50932;SDS011;36921;49.006;9.292;2023-11-21T01:49:10;8.88;;;2.15;;
50932;SDS011;36921;49.006;9.292;2023-11-21T01:51:38;7.20;;;2.03;;
50932;SDS011;36921;49.006;9.292;2023-11-21T01:54:08;8.57;;;2.05;;
50932;SDS011;36921;49.006;9.292;2023-11-21T01:56:34;6.85;;;2.55;;
50932;SDS011;36921;49.006;9.292;2023-11-21T01:59:00;6.85;;;2.17;;
50932;SDS011;36921;49.006;9.292;2023-11-21T02:01:25;5.47;;;1.98;;
50932;SDS011;36921;49.006;9.292;2023-11-21T02:03:51;5.80;;;2.50;;
50932;SDS011;36921;49.006;9.292;2023-11-21T02:06:17;7.80;;;2.15;;
50932;SDS011;36921;49.006;9.292;2023-11-21T02:08:43;9.10;;;2.97;;
50932;SDS011;36921;49.006;9.292;2023-11-21T02:11:09;8.43;;;2.53;;
50932;SDS011;36921;49.006;9.292;2023-11-21T02:13:37;14.05;;;3.00;;
50932;SDS011;36921;49.006;9.292;2023-11-21T02:16:03;12.20;;;2.78;;
50932;SDS011;36921;49.006;9.292;2023-11-21T02:18:30;9.48;;;2.38;;
50932;SDS011;36921;49.006;9.292;2023-11-21T02:20:55;8.43;;;2.00;;
50932;SDS011;36921;49.006;9.292;2023-11-21T02:23:21;5.28;;;1.70;;
50932;SDS011;36921;49.006;9.292;2023-11-21T02:25:48;12.98;;;1.80;;
50932;SDS011;36921;49.006;9.292;2023-11-21T02:38:20;6.53;;;2.15;;
50932;SDS011;36921;49.006;9.292;2023-11-21T02:40:46;8.85;;;2.25;;
50932;SDS011;36921;49.006;9.292;2023-11-21T02:43:11;9.88;;;1.80;;
50932;SDS011;36921;49.006;9.292;2023-11-21T02:45:37;5.47;;;1.85;;
50932;SDS011;36921;49.006;9.292;2023-11-21T02:48:02;8.88;;;1.65;;
50932;SDS011;36921;49.006;9.292;2023-11-21T02:50:28;6.22;;;2.08;;
50932;SDS011;36921;49.006;9.292;2023-11-21T02:52:54;7.00;;;1.95;;
50932;SDS011;36921;49.006;9.292;2023-11-21T02:55:22;10.55;;;2.15;;
50932;SDS011;36921;49.006;9.292;2023-11-21T02:57:49;3.92;;;1.63;;
50932;SDS011;36921;49.006;9.292;2023-11-21T03:00:15;6.60;;;2.10;;
50932;SDS011;36921;49.006;9.292;2023-11-21T03:02:41;4.82;;;1.80;;
50932;SDS011;36921;49.006;9.292;2023-11-21T03:05:08;8.52;;;2.00;;
50932;SDS011;36921;49.006;9.292;2023-11-21T03:07:37;5.90;;;2.13;;
50932;SDS011;36921;49.006;9.292;2023-11-21T03:10:03;7.82;;;2.17;;
50932;SDS011;36921;49.006;9.292;2023-11-21T03:12:29;4.63;;;2.20;;
50932;SDS011;36921;49.006;9.292;2023-11-21T03:14:54;7.95;;;1.90;;
50932;SDS011;36921;49.006;9.292;2023-11-21T03:17:20;6.85;;;2.15;;
50932;SDS011;36921;49.006;9.292;2023-11-21T03:19:46;7.93;;;1.60;;
50932;SDS011;36921;49.006;9.292;2023-11-21T03:22:11;4.95;;;1.83;;
50932;SDS011;36921;49.006;9.292;2023-11-21T03:24:36;8.15;;;1.65;;
50932;SDS011;36921;49.006;9.292;2023-11-21T03:27:02;7.22;;;1.73;;
50932;SDS011;36921;49.006;9.292;2023-11-21T03:29:28;5.35;;;1.63;;
50932;SDS011;36921;49.006;9.292;2023-11-21T03:31:54;7.18;;;2.05;;
50932;SDS011;36921;49.006;9.292;2023-11-21T03:34:26;12.45;;;2.58;;
50932;SDS011;36921;49.006;9.292;2023-11-21T03:36:52;9.15;;;1.95;;
50932;SDS011;36921;49.006;9.292;2023-11-21T03:39:21;5.85;;;1.50;;
50932;SDS011;36921;49.006;9.292;2023-11-21T03:41:47;6.18;;;1.98;;
50932;SDS011;36921;49.006;9.292;2023-11-21T03:44:13;6.05;;;1.73;;
50932;SDS011;36921;49.006;9.292;2023-11-21T03:46:38;3.70;;;1.55;;
50932;SDS011;36921;49.006;9.292;2023-11-21T03:49:04;5.50;;;1.67;;
50932;SDS011;36921;49.006;9.292;2023-11-21T03:51:29;8.15;;;1.90;;
50932;SDS011;36921;49.006;9.292;2023-11-21T03:53:55;6.13;;;1.42;;
50932;SDS011;36921;49.006;9.292;2023-11-21T03:56:20;6.82;;;1.67;;
50932;SDS011;36921;49.006;9.292;2023-11-21T03:58:48;5.43;;;1.83;;
50932;SDS011;36921;49.006;9.292;2023-11-21T04:01:23;12.32;;;1.80;;
50932;SDS011;36921;49.006;9.292;2023-11-21T04:03:49;8.98;;;1.75;;
50932;SDS011;36921;49.006;9.292;2023-11-21T04:06:16;4.97;;;1.40;;
50932;SDS011;36921;49.006;9.292;2023-11-21T04:08:44;7.70;;;1.75;;
50932;SDS011;36921;49.006;9.292;2023-11-21T04:11:10;7.32;;;1.52;;
50932;SDS011;36921;49.006;9.292;2023-11-21T04:13:37;8.55;;;1.77;;
50932;SDS011;36921;49.006;9.292;2023-11-21T04:16:03;5.75;;;1.75;;
50932;SDS011;36921;49.006;9.292;2023-11-21T04:18:29;6.57;;;1.60;;
50932;SDS011;36921;49.006;9.292;2023-11-21T04:20:54;5.22;;;1.75;;
50932;SDS011;36921;49.006;9.292;2023-11-21T04:23:20;5.30;;;1.60;;
50932;SDS011;36921;49.006;9.292;2023-11-21T04:25:45;7.22;;;2.03;;
50932;SDS011;36921;49.006;9.292;2023-11-21T04:28:10;5.38;;;1.52;;
50932;SDS011;36921;49.006;9.292;2023-11-21T04:30:35;6.32;;;1.75;;
50932;SDS011;36921;49.006;9.292;2023-11-21T04:33:01;6.95;;;1.95;;
50932;SDS011;36921;49.006;9.292;2023-11-21T04:35:27;3.72;;;1.60;;
50932;SDS011;36921;49.006;9.292;2023-11-21T04:37:53;7.10;;;1.65;;
50932;SDS011;36921;49.006;9.292;2023-11-21T04:40:18;7.75;;;1.80;;
50932;SDS011;36921;49.006;9.292;2023-11-21T04:42:45;3.85;;;1.50;;
50932;SDS011;36921;49.006;9.292;2023-11-21T04:45:11;2.97;;;1.70;;
50932;SDS011;36921;49.006;9.292;2023-11-21T04:47:37;8.07;;;2.47;;
50932;SDS011;36921;49.006;9.292;2023-11-21T04:50:04;13.38;;;3.75;;
50932;SDS011;36921;49.006;9.292;2023-11-21T04:52:31;6.78;;;2.20;;
50932;SDS011;36921;49.006;9.292;2023-11-21T04:54:57;7.10;;;2.03;;
50932;SDS011;36921;49.006;9.292;2023-11-21T04:57:23;9.93;;;2.05;;
50932;SDS011;36921;49.006;9.292;2023-11-21T04:59:49;10.02;;;2.80;;
50932;SDS011;36921;49.006;9.292;2023-11-21T05:02:15;6.05;;;1.98;;
50932;SDS011;36921;49.006;9.292;2023-11-21T05:04:40;5.63;;;2.13;;
50932;SDS011;36921;49.006;9.292;2023-11-21T05:07:07;5.55;;;1.95;;
50932;SDS011;36921;49.006;9.292;2023-11-21T05:09:33;6.13;;;1.80;;
50932;SDS011;36921;49.006;9.292;2023-11-21T05:11:59;5.68;;;2.17;;
50932;SDS011;36921;49.006;9.292;2023-11-21T05:14:25;10.82;;;2.53;;
50932;SDS011;36921;49.006;9.292;2023-11-21T05:16:50;6.82;;;2.45;;
50932;SDS011;36921;49.006;9.292;2023-11-21T05:19:16;6.20;;;2.45;;
50932;SDS011;36921;49.006;9.292;2023-11-21T05:21:42;5.85;;;2.40;;
50932;SDS011;36921;49.006;9.292;2023-11-21T05:24:07;6.82;;;2.40;;
50932;SDS011;36921;49.006;9.292;2023-11-21T05:26:32;8.73;;;2.15;;
50932;SDS011;36921;49.006;9.292;2023-11-21T05:28:58;6.82;;;2.75;;
50932;SDS011;36921;49.006;9.292;2023-11-21T05:31:23;7.38;;;2.88;;
50932;SDS011;36921;49.006;9.292;2023-11-21T05:33:48;11.40;;;2.88;;
50932;SDS011;36921;49.006;9.292;2023-11-21T05:36:13;8.30;;;2.50;;
50932;SDS011;36921;49.006;9.292;2023-11-21T05:38:39;6.90;;;2.38;;
50932;SDS011;36921;49.006;9.292;2023-11-21T05:41:04;5.57;;;2.78;;
50932;SDS011;36921;49.006;9.292;2023-11-21T05:43:30;4.65;;;2.22;;
50932;SDS011;36921;49.006;9.292;2023-11-21T05:45:55;7.57;;;2.70;;
50932;SDS011;36921;49.006;9.292;2023-11-21T05:48:21;6.70;;;3.03;;
50932;SDS011;36921;49.006;9.292;2023-11-21T05:50:47;6.13;;;2.60;;
50932;SDS011;36921;49.006;9.292;2023-11-21T05:53:14;6.13;;;2.22;;
50932;SDS011;36921;49.006;9.292;2023-11-21T05:55:40;6.45;;;2.63;;
50932;SDS011;36921;49.006;9.292;2023-11-21T05:58:06;5.90;;;2.92;;
50932;SDS011;36921;49.006;9.292;2023-11-21T06:00:32;6.93;;;2.72;;
50932;SDS011;36921;49.006;9.292;2023-11-21T06:02:58;10.82;;;3.45;;
50932;SDS011;36921;49.006;9.292;2023-11-21T06:05:24;12.82;;;3.17;;
50932;SDS011;36921;49.006;9.292;2023-11-21T06:07:50;8.73;;;3.58;;
50932;SDS011;36921;49.006;9.292;2023-11-21T06:10:17;6.82;;;3.13;;
50932;SDS011;36921;49.006;9.292;2023-11-21T06:12:44;7.88;;;3.17;;
50932;SDS011;36921;49.006;9.292;2023-11-21T06:15:10;7.47;;;2.58;;
50932;SDS011;36921;49.006;9.292;2023-11-21T06:17:38;8.02;;;2.53;;
50932;SDS011;36921;49.006;9.292;2023-11-21T06:20:04;9.02;;;2.40;;
50932;SDS011;36921;49.006;9.292;2023-11-21T06:22:37;9.48;;;2.78;;
50932;SDS011;36921;49.006;9.292;2023-11-21T06:27:31;5.70;;;2.38;;
50932;SDS011;36921;49.006;9.292;2023-11-21T06:29:56;7.63;;;2.80;;
50932;SDS011;36921;49.006;9.292;2023-11-21T06:32:22;5.03;;;3.10;;
50932;SDS011;36921;49.006;9.292;2023-11-21T06:34:47;11.98;;;2.97;;
50932;SDS011;36921;49.006;9.292;2023-11-21T06:37:14;7.53;;;2.95;;
50932;SDS011;36921;49.006;9.292;2023-11-21T06:39:39;5.78;;;3.20;;
50932;SDS011;36921;49.006;9.292;2023-11-21T06:42:05;6.47;;;3.28;;
50932;SDS011;36921;49.006;9.292;2023-11-21T06:44:30;6.60;;;3.53;;
50932;SDS011;36921;49.006;9.292;2023-11-21T06:46:56;5.35;;;3.28;;
50932;SDS011;36921;49.006;9.292;2023-11-21T06:49:21;7.65;;;3.67;;
50932;SDS011;36921;49.006;9.292;2023-11-21T06:51:46;6.22;;;3.72;;
50932;SDS011;36921;49.006;9.292;2023-11-21T06:54:12;6.05;;;3.30;;
50932;SDS011;36921;49.006;9.292;2023-11-21T06:56:37;8.13;;;3.00;;
50932;SDS011;36921;49.006;9.292;2023-11-21T06:59:04;6.97;;;3.42;;
50932;SDS011;36921;49.006;9.292;2023-11-21T07:01:30;8.15;;;3.47;;
50932;SDS011;36921;49.006;9.292;2023-11-21T07:03:58;9.13;;;4.22;;
50932;SDS011;36921;49.006;9.292;2023-11-21T07:06:23;7.45;;;3.78;;
50932;SDS011;36921;49.006;9.292;2023-11-21T07:08:48;5.97;;;4.00;;
50932;SDS011;36921;49.006;9.292;2023-11-21T07:13:41;6.20;;;3.25;;
50932;SDS011;36921;49.006;9.292;2023-11-21T07:16:06;4.53;;;2.80;;
50932;SDS011;36921;49.006;9.292;2023-11-21T07:18:32;5.53;;;3.10;;
50932;SDS011;36921;49.006;9.292;2023-11-21T07:20:57;6.95;;;2.85;;
50932;SDS011;36921;49.006;9.292;2023-11-21T07:23:23;7.22;;;3.08;;
50932;SDS011;36921;49.006;9.292;2023-11-21T07:25:49;12.05;;;3.40;;
50932;SDS011;36921;49.006;9.292;2023-11-21T07:28:14;6.68;;;2.95;;
50932;SDS011;36921;49.006;9.292;2023-11-21T07:30:40;7.45;;;3.30;;
50932;SDS011;36921;49.006;9.292;2023-11-21T07:33:06;7.13;;;3.08;;
50932;SDS011;36921;49.006;9.292;2023-11-21T07:35:32;9.35;;;3.70;;
50932;SDS011;36921;49.006;9.292;2023-11-21T07:37:59;5.95;;;3.28;;
50932;SDS011;36921;49.006;9.292;2023-11-21T07:40:24;8.30;;;3.22;;
50932;SDS011;36921;49.006;9.292;2023-11-21T07:42:51;7.03;;;3.65;;
50932;SDS011;36921;49.006;9.292;2023-11-21T07:45:16;7.60;;;3.97;;
50932;SDS011;36921;49.006;9.292;2023-11-21T07:47:42;7.65;;;5.35;;
50932;SDS011;36921;49.006;9.292;2023-11-21T07:50:07;7.68;;;3.38;;
50932;SDS011;36921;49.006;9.292;2023-11-21T07:52:34;9.60;;;2.78;;
50932;SDS011;36921;49.006;9.292;2023-11-21T07:55:00;8.38;;;2.20;;
50932;SDS011;36921;49.006;9.292;2023-11-21T07:57:26;2.63;;;1.90;;
50932;SDS011;36921;49.006;9.292;2023-11-21T07:59:52;5.07;;;2.60;;
50932;SDS011;36921;49.006;9.292;2023-11-21T08:02:19;6.47;;;3.08;;
50932;SDS011;36921;49.006;9.292;2023-11-21T08:04:44;4.70;;;3.10;;
50932;SDS011;36921;49.006;9.292;2023-11-21T08:07:09;5.00;;;3.17;;
50932;SDS011;36921;49.006;9.292;2023-11-21T08:09:36;6.93;;;2.85;;
50932;SDS011;36921;49.006;9.292;2023-11-21T08:12:01;8.52;;;3.47;;
50932;SDS011;36921;49.006;9.292;2023-11-21T08:14:27;4.47;;;1.83;;
50932;SDS011;36921;49.006;9.292;2023-11-21T08:16:53;6.00;;;2.92;;
50932;SDS011;36921;49.006;9.292;2023-11-21T08:19:22;6.47;;;2.65;;
50932;SDS011;36921;49.006;9.292;2023-11-21T08:21:50;6.15;;;2.28;;
50932;SDS011;36921;49.006;9.292;2023-11-21T08:26:44;4.28;;;2.03;;
50932;SDS011;36921;49.006;9.292;2023-11-21T08:29:10;5.97;;;2.42;;
50932;SDS011;36921;49.006;9.292;2023-11-21T08:31:35;4.78;;;2.88;;
50932;SDS011;36921;49.006;9.292;2023-11-21T08:34:01;7.97;;;3.08;;
50932;SDS011;36921;49.006;9.292;2023-11-21T08:36:27;6.40;;;2.70;;
50932;SDS011;36921;49.006;9.292;2023-11-21T08:38:53;8.18;;;3.28;;
50932;SDS011;36921;49.006;9.292;2023-11-21T08:41:18;7.60;;;2.85;;
50932;SDS011;36921;49.006;9.292;2023-11-21T08:43:47;4.15;;;2.60;;
50932;SDS011;36921;49.006;9.292;2023-11-21T08:46:14;5.22;;;2.67;;
50932;SDS011;36921;49.006;9.292;2023-11-21T08:48:40;4.63;;;2.78;;
50932;SDS011;36921;49.006;9.292;2023-11-21T08:51:06;6.55;;;2.15;;
50932;SDS011;36921;49.006;9.292;2023-11-21T08:53:32;3.78;;;2.28;;
50932;SDS011;36921;49.006;9.292;2023-11-21T08:55:58;5.28;;;3.20;;
50932;SDS011;36921;49.006;9.292;2023-11-21T08:58:23;5.32;;;2.92;;
50932;SDS011;36921;49.006;9.292;2023-11-21T09:00:49;3.33;;;2.08;;
50932;SDS011;36921;49.006;9.292;2023-11-21T09:03:15;4.65;;;2.00;;
50932;SDS011;36921;49.006;9.292;2023-11-21T09:05:40;4.82;;;1.83;;
50932;SDS011;36921;49.006;9.292;2023-11-21T09:08:06;3.38;;;1.95;;
50932;SDS011;36921;49.006;9.292;2023-11-21T09:10:34;4.72;;;2.40;;
50932;SDS011;36921;49.006;9.292;2023-11-21T09:13:01;6.32;;;2.20;;
50932;SDS011;36921;49.006;9.292;2023-11-21T09:15:27;12.38;;;3.47;;
50932;SDS011;36921;49.006;9.292;2023-11-21T09:17:53;12.48;;;4.38;;
50932;SDS011;36921;49.006;9.292;2023-11-21T09:20:19;8.00;;;3.45;;
50932;SDS011;36921;49.006;9.292;2023-11-21T09:22:47;6.55;;;3.20;;
50932;SDS011;36921;49.006;9.292;2023-11-21T09:25:14;3.05;;;1.92;;
50932;SDS011;36921;49.006;9.292;2023-11-21T09:27:40;6.45;;;2.22;;
50932;SDS011;36921;49.006;9.292;2023-11-21T09:30:06;6.13;;;1.80;;
50932;SDS011;36921;49.006;9.292;2023-11-21T09:32:35;3.42;;;1.90;;
50932;SDS011;36921;49.006;9.292;2023-11-21T09:35:02;5.78;;;2.10;;
50932;SDS011;36921;49.006;9.292;2023-11-21T09:37:28;5.40;;;2.30;;
50932;SDS011;36921;49.006;9.292;2023-11-21T09:39:54;5.78;;;2.25;;
50932;SDS011;36921;49.006;9.292;2023-11-21T09:42:23;4.50;;;2.13;;
50932;SDS011;36921;49.006;9.292;2023-11-21T09:44:52;4.55;;;2.28;;
50932;SDS011;36921;49.006;9.292;2023-11-21T09:47:30;5.13;;;2.42;;
50932;SDS011;36921;49.006;9.292;2023-11-21T09:50:01;3.55;;;2.00;;
50932;SDS011;36921;49.006;9.292;2023-11-21T09:52:26;6.68;;;1.65;;
50932;SDS011;36921;49.006;9.292;2023-11-21T09:54:53;3.95;;;1.27;;
50932;SDS011;36921;49.006;9.292;2023-11-21T09:57:23;2.75;;;1.52;;
50932;SDS011;36921;49.006;9.292;2023-11-21T10:02:24;4.38;;;2.17;;
50932;SDS011;36921;49.006;9.292;2023-11-21T10:04:51;7.65;;;5.03;;
50932;SDS011;36921;49.006;9.292;2023-11-21T10:07:17;8.60;;;5.35;;
50932;SDS011;36921;49.006;9.292;2023-11-21T10:09:46;5.43;;;3.13;;
50932;SDS011;36921;49.006;9.292;2023-11-21T10:12:13;3.45;;;1.60;;
50932;SDS011;36921;49.006;9.292;2023-11-21T10:14:41;2.78;;;1.40;;
50932;SDS011;36921;49.006;9.292;2023-11-21T10:17:09;1.17;;;0.70;;
50932;SDS011;36921;49.006;9.292;2023-11-21T10:19:37;1.90;;;0.75;;
50932;SDS011;36921;49.006;9.292;2023-11-21T10:22:05;1.33;;;0.70;;
50932;SDS011;36921;49.006;9.292;2023-11-21T10:24:32;3.70;;;1.30;;
50932;SDS011;36921;49.006;9.292;2023-11-21T10:26:58;1.42;;;1.00;;
50932;SDS011;36921;49.006;9.292;2023-11-21T10:29:23;1.83;;;0.77;;
50932;SDS011;36921;49.006;9.292;2023-11-21T10:31:49;1.58;;;1.00;;
50932;SDS011;36921;49.006;9.292;2023-11-21T10:34:16;3.10;;;1.00;;
50932;SDS011;36921;49.006;9.292;2023-11-21T10:36:45;1.77;;;0.88;;
50932;SDS011;36921;49.006;9.292;2023-11-21T10:39:16;2.33;;;1.10;;
50932;SDS011;36921;49.006;9.292;2023-11-21T10:41:46;1.52;;;1.02;;
50932;SDS011;36921;49.006;9.292;2023-11-21T10:44:15;1.50;;;1.10;;
50932;SDS011;36921;49.006;9.292;2023-11-21T10:46:52;1.20;;;1.00;;
50932;SDS011;36921;49.006;9.292;2023-11-21T10:49:21;1.45;;;1.00;;
50932;SDS011;36921;49.006;9.292;2023-11-21T10:51:50;3.40;;;1.25;;
50932;SDS011;36921;49.006;9.292;2023-11-21T10:54:22;4.93;;;1.17;;
50932;SDS011;36921;49.006;9.292;2023-11-21T10:56:53;2.22;;;1.20;;
50932;SDS011;36921;49.006;9.292;2023-11-21T10:59:22;1.88;;;1.55;;
50932;SDS011;36921;49.006;9.292;2023-11-21T11:01:50;2.42;;;1.30;;
50932;SDS011;36921;49.006;9.292;2023-11-21T11:04:20;2.08;;;1.00;;
50932;SDS011;36921;49.006;9.292;2023-11-21T11:07:08;4.95;;;1.00;;
50932;SDS011;36921;49.006;9.292;2023-11-21T11:09:34;1.60;;;1.02;;
50932;SDS011;36921;49.006;9.292;2023-11-21T11:12:01;9.43;;;5.45;;
50932;SDS011;36921;49.006;9.292;2023-11-21T11:14:29;4.50;;;2.35;;
50932;SDS011;36921;49.006;9.292;2023-11-21T11:16:55;2.05;;;1.33;;
50932;SDS011;36921;49.006;9.292;2023-11-21T11:19:24;2.97;;;1.25;;
50932;SDS011;36921;49.006;9.292;2023-11-21T11:22:08;4.43;;;2.40;;
50932;SDS011;36921;49.006;9.292;2023-11-21T11:27:32;4.70;;;2.97;;
50932;SDS011;36921;49.006;9.292;2023-11-21T11:35:51;3.05;;;1.00;;
50932;SDS011;36921;49.006;9.292;2023-11-21T11:38:31;1.00;;;0.80;;
50932;SDS011;36921;49.006;9.292;2023-11-21T11:40:59;2.10;;;0.80;;
50932;SDS011;36921;49.006;9.292;2023-11-21T11:43:28;2.80;;;0.98;;
50932;SDS011;36921;49.006;9.292;2023-11-21T11:45:59;5.00;;;2.35;;
50932;SDS011;36921;49.006;9.292;2023-11-21T11:48:28;3.85;;;2.10;;
50932;SDS011;36921;49.006;9.292;2023-11-21T11:51:04;1.55;;;1.00;;
50932;SDS011;36921;49.006;9.292;2023-11-21T11:53:40;0.95;;;0.65;;
50932;SDS011;36921;49.006;9.292;2023-11-21T11:59:09;1.42;;;0.70;;
50932;SDS011;36921;49.006;9.292;2023-11-21T12:01:35;1.13;;;0.77;;
50932;SDS011;36921;49.006;9.292;2023-11-21T12:06:56;1.75;;;0.90;;
50932;SDS011;36921;49.006;9.292;2023-11-21T12:09:25;1.15;;;0.80;;
50932;SDS011;36921;49.006;9.292;2023-11-21T12:11:52;1.40;;;1.10;;
50932;SDS011;36921;49.006;9.292;2023-11-21T12:14:21;1.10;;;0.90;;
50932;SDS011;36921;49.006;9.292;2023-11-21T12:16:48;1.88;;;0.90;;
50932;SDS011;36921;49.006;9.292;2023-11-21T12:19:13;1.73;;;0.80;;
50932;SDS011;36921;49.006;9.292;2023-11-21T12:21:39;3.90;;;1.02;;
50932;SDS011;36921;49.006;9.292;2023-11-21T12:24:06;1.38;;;0.85;;
50932;SDS011;36921;49.006;9.292;2023-11-21T12:26:33;1.73;;;1.08;;
50932;SDS011;36921;49.006;9.292;2023-11-21T12:29:02;2.23;;;1.50;;
50932;SDS011;36921;49.006;9.292;2023-11-21T12:31:29;2.22;;;1.38;;
50932;SDS011;36921;49.006;9.292;2023-11-21T12:33:55;3.78;;;1.45;;
50932;SDS011;36921;49.006;9.292;2023-11-21T12:36:21;1.27;;;0.95;;
50932;SDS011;36921;49.006;9.292;2023-11-21T12:38:47;1.60;;;1.00;;
50932;SDS011;36921;49.006;9.292;2023-11-21T12:41:12;1.20;;;0.70;;
50932;SDS011;36921;49.006;9.292;2023-11-21T12:43:38;2.50;;;0.82;;
50932;SDS011;36921;49.006;9.292;2023-11-21T12:46:08;1.77;;;1.00;;
50932;SDS011;36921;49.006;9.292;2023-11-21T12:48:37;2.38;;;1.17;;
50932;SDS011;36921;49.006;9.292;2023-11-21T12:51:10;0.98;;;0.68;;
50932;SDS011;36921;49.006;9.292;2023-11-21T12:53:37;1.20;;;0.60;;
50932;SDS011;36921;49.006;9.292;2023-11-21T12:56:09;0.80;;;0.50;;
50932;SDS011;36921;49.006;9.292;2023-11-21T12:58:36;0.73;;;0.45;;
50932;SDS011;36921;49.006;9.292;2023-11-21T13:01:04;0.40;;;0.30;;
50932;SDS011;36921;49.006;9.292;2023-11-21T13:03:30;0.50;;;0.30;;
50932;SDS011;36921;49.006;9.292;2023-11-21T13:05:56;0.47;;;0.30;;
50932;SDS011;36921;49.006;9.292;2023-11-21T13:08:24;1.27;;;0.17;;
50932;SDS011;36921;49.006;9.292;2023-11-21T13:10:52;0.03;;;0.03;;
50932;SDS011;36921;49.006;9.292;2023-11-21T13:13:22;0.13;;;0.10;;
50932;SDS011;36921;49.006;9.292;2023-11-21T13:16:02;0.20;;;0.10;;
50932;SDS011;36921;49.006;9.292;2023-11-21T13:18:30;0.38;;;0.10;;
50932;SDS011;36921;49.006;9.292;2023-11-21T13:20:56;0.52;;;0.10;;
50932;SDS011;36921;49.006;9.292;2023-11-21T13:23:38;0.20;;;0.20;;
50932;SDS011;36921;49.006;9.292;2023-11-21T13:26:06;0.47;;;0.22;;
50932;SDS011;36921;49.006;9.292;2023-11-21T13:28:32;0.63;;;0.30;;
50932;SDS011;36921;49.006;9.292;2023-11-21T13:31:01;0.20;;;0.20;;
50932;SDS011;36921;49.006;9.292;2023-11-21T13:33:34;0.30;;;0.20;;
50932;SDS011;36921;49.006;9.292;2023-11-21T13:36:02;0.35;;;0.30;;
50932;SDS011;36921;49.006;9.292;2023-11-21T13:38:32;0.93;;;0.50;;
50932;SDS011;36921;49.006;9.292;2023-11-21T13:40:59;4.88;;;0.70;;
50932;SDS011;36921;49.006;9.292;2023-11-21T13:43:25;1.48;;;0.70;;
50932;SDS011;36921;49.006;9.292;2023-11-21T13:45:53;1.23;;;0.40;;
50932;SDS011;36921;49.006;9.292;2023-11-21T13:48:28;0.60;;;0.50;;
50932;SDS011;36921;49.006;9.292;2023-11-21T13:50:59;0.77;;;0.50;;
50932;SDS011;36921;49.006;9.292;2023-11-21T13:53:33;5.03;;;0.50;;
50932;SDS011;36921;49.006;9.292;2023-11-21T13:56:01;2.63;;;0.60;;
50932;SDS011;36921;49.006;9.292;2023-11-21T13:58:26;0.73;;;0.45;;
50932;SDS011;36921;49.006;9.292;2023-11-21T14:01:15;4.47;;;2.00;;
50932;SDS011;36921;49.006;9.292;2023-11-21T14:04:04;2.25;;;1.20;;
50932;SDS011;36921;49.006;9.292;2023-11-21T14:06:42;2.50;;;0.88;;
50932;SDS011;36921;49.006;9.292;2023-11-21T14:09:15;1.10;;;0.60;;
50932;SDS011;36921;49.006;9.292;2023-11-21T14:11:48;0.80;;;0.55;;
50932;SDS011;36921;49.006;9.292;2023-11-21T14:14:15;1.20;;;0.68;;
50932;SDS011;36921;49.006;9.292;2023-11-21T14:16:41;1.20;;;0.63;;
50932;SDS011;36921;49.006;9.292;2023-11-21T14:19:07;0.80;;;0.50;;
50932;SDS011;36921;49.006;9.292;2023-11-21T14:21:40;1.33;;;0.88;;
50932;SDS011;36921;49.006;9.292;2023-11-21T14:24:08;1.27;;;0.77;;
50932;SDS011;36921;49.006;9.292;2023-11-21T14:26:34;3.20;;;1.00;;
50932;SDS011;36921;49.006;9.292;2023-11-21T14:29:00;3.13;;;0.98;;
50932;SDS011;36921;49.006;9.292;2023-11-21T14:31:26;1.75;;;0.85;;
50932;SDS011;36921;49.006;9.292;2023-11-21T14:33:52;1.52;;;0.93;;
50932;SDS011;36921;49.006;9.292;2023-11-21T14:36:18;3.13;;;0.90;;
50932;SDS011;36921;49.006;9.292;2023-11-21T14:38:43;4.47;;;1.45;;
50932;SDS011;36921;49.006;9.292;2023-11-21T14:41:09;1.67;;;1.00;;
50932;SDS011;36921;49.006;9.292;2023-11-21T14:43:36;1.85;;;1.00;;
50932;SDS011;36921;49.006;9.292;2023-11-21T14:46:02;2.35;;;1.30;;
50932;SDS011;36921;49.006;9.292;2023-11-21T14:48:37;4.47;;;1.38;;
50932;SDS011;36921;49.006;9.292;2023-11-21T14:51:12;1.20;;;1.10;;
50932;SDS011;36921;49.006;9.292;2023-11-21T14:53:57;3.45;;;1.10;;
50932;SDS011;36921;49.006;9.292;2023-11-21T14:56:31;1.70;;;1.20;;
50932;SDS011;36921;49.006;9.292;2023-11-21T14:59:00;2.20;;;1.17;;
50932;SDS011;36921;49.006;9.292;2023-11-21T15:01:41;3.00;;;1.52;;
50932;SDS011;36921;49.006;9.292;2023-11-21T15:07:02;3.08;;;1.38;;
50932;SDS011;36921;49.006;9.292;2023-11-21T15:09:29;3.28;;;1.50;;
50932;SDS011;36921;49.006;9.292;2023-11-21T15:11:57;2.55;;;1.30;;
50932;SDS011;36921;49.006;9.292;2023-11-21T15:14:31;3.58;;;1.80;;
50932;SDS011;36921;49.006;9.292;2023-11-21T15:16:59;3.17;;;1.70;;
50932;SDS011;36921;49.006;9.292;2023-11-21T15:19:25;3.47;;;1.80;;
50932;SDS011;36921;49.006;9.292;2023-11-21T15:21:51;5.15;;;2.17;;
50932;SDS011;36921;49.006;9.292;2023-11-21T15:24:16;6.35;;;2.15;;
50932;SDS011;36921;49.006;9.292;2023-11-21T15:26:42;4.93;;;2.22;;
50932;SDS011;36921;49.006;9.292;2023-11-21T15:29:07;3.90;;;2.15;;